Home   Weather   India   Chhindwara   Past weeks
Flag for India

Past Weather in Chhindwara, Madhya Pradesh, India — Yesterday and Last 2 Weeks

Currently: 70 °F. Haze. (Weather station: Nagpur Sonegaon, India). See more current weather

Past Weather in Chhindwara — Graph

°F

Chhindwara Temperature Yesterday

Maximum temperature yesterday: 84 °F (at 2:00 pm)
Minimum temperature yesterday: 59 °F (at 3:30 am)
Average temperature yesterday: 69 °F

High & Low Weather Summary for the Past Weeks

 TemperatureHumidityPressure
High86 °F (Nov 29, 4:00 pm)100% (Nov 29, 3:30 am)30.09 "Hg (Nov 29, 3:30 am)
Low54 °F (Nov 21, 4:30 am)30% (Nov 19, 1:30 pm)29.83 "Hg (Nov 27, 3:30 pm)
Average69 °F64%29.97 "Hg
* Reported Nov 17 7:30 pm — Dec 2 7:30 pm, Chhindwara. Weather by CustomWeather, © 2022

Note: Actual official high and low records may vary slightly from our data, if they occured in-between our weather recording intervals... More about our weather records

Chhindwara Weather History for the Previous 24 Hours

Scroll right to see more
 ConditionsComfort  
Time TempWeatherWind HumidityBarometerVisibility
7:30 pm
Fri, Dec 2
70 °FHaze.No wind78%29.95 "Hg1 mi
7:00 pm72 °FHaze.3 mph69%29.95 "Hg1 mi
6:30 pm73 °FHaze.2 mph65%29.95 "Hg2 mi
6:00 pm73 °FHaze.No wind65%29.92 "Hg2 mi
5:30 pm77 °FHaze.No wind61%29.92 "Hg2 mi
5:00 pm79 °FHaze.No wind58%29.92 "Hg2 mi
4:30 pm82 °FHaze.No wind55%29.89 "Hg2 mi
4:00 pm82 °FHaze.2 mph51%29.89 "Hg2 mi
3:30 pm82 °FHaze.2 mph51%29.89 "Hg2 mi
3:00 pm84 °FHaze.3 mph51%29.92 "Hg2 mi
2:30 pm84 °FHaze.3 mph51%29.92 "Hg2 mi
2:00 pm82 °FHaze.3 mph45%29.92 "Hg2 mi
1:30 pm82 °FHaze.No wind48%29.95 "Hg2 mi
1:00 pm81 °FHaze.3 mph51%29.95 "Hg2 mi
12:30 pm81 °FHaze.5 mph51%29.98 "Hg2 mi
11:30 am79 °FHaze.3 mph54%30.01 "Hg1 mi
11:00 am77 °FHaze.3 mph54%30.04 "Hg1 mi
10:30 am75 °FHaze.3 mph61%30.04 "Hg1 mi
10:00 am73 °FHaze.3 mph65%30.04 "Hg1 mi
9:30 am72 °FFog.3 mph69%30.04 "Hg1 mi
9:00 am68 °FFog.2 mph78%30.04 "Hg1 mi
8:30 am66 °FFog.2 mph88%30.01 "Hg1 mi
8:00 am63 °FFog.2 mph94%30.01 "Hg1 mi
7:30 am61 °FFog.No wind88%29.98 "Hg1 mi
7:00 am59 °FFog.2 mph94%29.98 "Hg1 mi
6:30 am59 °FFog.No wind88%29.98 "Hg1 mi
5:00 am59 °FFog.No wind94%29.92 "Hg1 mi
4:30 am59 °FFog.2 mph94%29.92 "Hg1 mi
3:30 am61 °FFog.No wind88%29.92 "Hg1 mi
3:00 am61 °FFog.No wind88%29.92 "Hg1 mi
2:30 am63 °FFog.No wind83%29.95 "Hg1 mi
1:30 am61 °FHaze.3 mph88%29.95 "Hg1 mi
1:00 am61 °FHaze.3 mph83%29.95 "Hg1 mi
12:30 am63 °FHaze.3 mph77%29.95 "Hg1 mi
12:00 am63 °FHaze.2 mph83%29.95 "Hg1 mi
11:30 pm
Thu, Dec 1
63 °FHaze.No wind83%29.95 "Hg1 mi
11:00 pm63 °FHaze.2 mph77%29.95 "Hg1 mi
10:30 pm63 °FHaze.No wind77%29.95 "Hg1 mi
9:30 pm64 °FHaze.2 mph78%29.95 "Hg1 mi
9:00 pm64 °FHaze.2 mph73%29.95 "Hg1 mi
8:30 pm64 °FHaze.No wind73%29.95 "Hg1 mi
8:00 pm66 °FHaze.2 mph68%29.95 "Hg1 mi
Weather by CustomWeather, © 2022

See weather overview